sensor_id;sensor_type;location;lat;lon;timestamp;P1;durP1;ratioP1;P2;durP2;ratioP2
64199;SDS011;50516;52.272;5.136;2023-02-22T00:01:17;74.15;;;31.30;;
64199;SDS011;50516;52.272;5.136;2023-02-22T00:03:47;75.05;;;31.17;;
64199;SDS011;50516;52.272;5.136;2023-02-22T00:06:15;73.97;;;32.20;;
64199;SDS011;50516;52.272;5.136;2023-02-22T00:08:41;70.78;;;31.17;;
64199;SDS011;50516;52.272;5.136;2023-02-22T00:11:07;65.53;;;29.30;;
64199;SDS011;50516;52.272;5.136;2023-02-22T00:13:33;65.45;;;28.50;;
64199;SDS011;50516;52.272;5.136;2023-02-22T00:16:00;69.97;;;30.38;;
64199;SDS011;50516;52.272;5.136;2023-02-22T00:18:26;68.68;;;29.73;;
64199;SDS011;50516;52.272;5.136;2023-02-22T00:20:53;68.97;;;29.98;;
64199;SDS011;50516;52.272;5.136;2023-02-22T00:23:26;69.25;;;28.65;;
64199;SDS011;50516;52.272;5.136;2023-02-22T00:25:53;74.63;;;31.00;;
64199;SDS011;50516;52.272;5.136;2023-02-22T00:28:20;63.35;;;29.67;;
64199;SDS011;50516;52.272;5.136;2023-02-22T00:30:48;65.15;;;28.67;;
64199;SDS011;50516;52.272;5.136;2023-02-22T00:33:14;62.90;;;27.10;;
64199;SDS011;50516;52.272;5.136;2023-02-22T00:35:40;63.35;;;29.95;;
64199;SDS011;50516;52.272;5.136;2023-02-22T00:38:09;60.25;;;26.88;;
64199;SDS011;50516;52.272;5.136;2023-02-22T00:40:36;60.20;;;28.63;;
64199;SDS011;50516;52.272;5.136;2023-02-22T00:43:03;59.28;;;28.20;;
64199;SDS011;50516;52.272;5.136;2023-02-22T00:45:30;59.97;;;27.40;;
64199;SDS011;50516;52.272;5.136;2023-02-22T00:47:56;59.75;;;26.50;;
64199;SDS011;50516;52.272;5.136;2023-02-22T00:50:23;62.10;;;28.02;;
64199;SDS011;50516;52.272;5.136;2023-02-22T00:52:51;64.10;;;28.85;;
64199;SDS011;50516;52.272;5.136;2023-02-22T00:55:22;62.00;;;29.85;;
64199;SDS011;50516;52.272;5.136;2023-02-22T00:57:49;64.63;;;29.58;;
64199;SDS011;50516;52.272;5.136;2023-02-22T01:02:51;61.97;;;28.08;;
64199;SDS011;50516;52.272;5.136;2023-02-22T01:05:18;54.83;;;26.20;;
64199;SDS011;50516;52.272;5.136;2023-02-22T01:07:45;56.55;;;27.52;;
64199;SDS011;50516;52.272;5.136;2023-02-22T01:10:11;56.28;;;27.85;;
64199;SDS011;50516;52.272;5.136;2023-02-22T01:12:38;58.65;;;28.08;;
64199;SDS011;50516;52.272;5.136;2023-02-22T01:15:05;52.30;;;25.35;;
64199;SDS011;50516;52.272;5.136;2023-02-22T01:17:34;55.85;;;27.90;;
64199;SDS011;50516;52.272;5.136;2023-02-22T01:20:00;55.25;;;29.15;;
64199;SDS011;50516;52.272;5.136;2023-02-22T01:22:25;55.17;;;27.92;;
64199;SDS011;50516;52.272;5.136;2023-02-22T01:24:52;53.83;;;27.88;;
64199;SDS011;50516;52.272;5.136;2023-02-22T01:27:19;55.80;;;28.67;;
64199;SDS011;50516;52.272;5.136;2023-02-22T01:29:47;52.00;;;26.45;;
64199;SDS011;50516;52.272;5.136;2023-02-22T01:32:14;50.63;;;25.45;;
64199;SDS011;50516;52.272;5.136;2023-02-22T01:34:39;53.00;;;28.40;;
64199;SDS011;50516;52.272;5.136;2023-02-22T01:37:05;53.70;;;27.92;;
64199;SDS011;50516;52.272;5.136;2023-02-22T01:39:31;47.78;;;25.58;;
64199;SDS011;50516;52.272;5.136;2023-02-22T01:41:56;51.45;;;28.05;;
64199;SDS011;50516;52.272;5.136;2023-02-22T01:46:56;54.88;;;27.98;;
64199;SDS011;50516;52.272;5.136;2023-02-22T01:49:23;50.85;;;25.95;;
64199;SDS011;50516;52.272;5.136;2023-02-22T01:51:53;44.28;;;26.23;;
64199;SDS011;50516;52.272;5.136;2023-02-22T01:54:26;55.35;;;28.55;;
64199;SDS011;50516;52.272;5.136;2023-02-22T02:00:08;49.20;;;26.60;;
64199;SDS011;50516;52.272;5.136;2023-02-22T02:02:37;48.30;;;26.95;;
64199;SDS011;50516;52.272;5.136;2023-02-22T02:05:07;48.10;;;27.10;;
64199;SDS011;50516;52.272;5.136;2023-02-22T02:07:37;50.40;;;26.73;;
64199;SDS011;50516;52.272;5.136;2023-02-22T02:10:05;54.22;;;27.38;;
64199;SDS011;50516;52.272;5.136;2023-02-22T02:12:38;58.38;;;27.15;;
64199;SDS011;50516;52.272;5.136;2023-02-22T02:15:26;47.92;;;26.80;;
64199;SDS011;50516;52.272;5.136;2023-02-22T02:17:56;46.58;;;26.85;;
64199;SDS011;50516;52.272;5.136;2023-02-22T02:29:08;44.97;;;25.45;;
64199;SDS011;50516;52.272;5.136;2023-02-22T02:32:10;46.10;;;25.85;;
64199;SDS011;50516;52.272;5.136;2023-02-22T02:37:45;44.47;;;25.00;;
64199;SDS011;50516;52.272;5.136;2023-02-22T02:40:23;45.33;;;25.30;;
64199;SDS011;50516;52.272;5.136;2023-02-22T02:42:59;48.55;;;26.63;;
64199;SDS011;50516;52.272;5.136;2023-02-22T02:45:35;47.72;;;26.63;;
64199;SDS011;50516;52.272;5.136;2023-02-22T02:48:10;47.92;;;27.33;;
64199;SDS011;50516;52.272;5.136;2023-02-22T02:50:40;46.67;;;24.33;;
64199;SDS011;50516;52.272;5.136;2023-02-22T02:53:10;48.72;;;26.25;;
64199;SDS011;50516;52.272;5.136;2023-02-22T02:55:37;46.15;;;25.73;;
64199;SDS011;50516;52.272;5.136;2023-02-22T02:58:06;49.67;;;26.38;;
64199;SDS011;50516;52.272;5.136;2023-02-22T03:00:33;45.03;;;25.90;;
64199;SDS011;50516;52.272;5.136;2023-02-22T03:05:46;48.67;;;26.25;;
64199;SDS011;50516;52.272;5.136;2023-02-22T03:08:55;45.88;;;26.42;;
64199;SDS011;50516;52.272;5.136;2023-02-22T03:11:24;42.83;;;25.08;;
64199;SDS011;50516;52.272;5.136;2023-02-22T03:16:53;44.38;;;26.50;;
64199;SDS011;50516;52.272;5.136;2023-02-22T03:19:26;44.70;;;25.80;;
64199;SDS011;50516;52.272;5.136;2023-02-22T03:24:34;44.25;;;24.80;;
64199;SDS011;50516;52.272;5.136;2023-02-22T03:27:13;45.35;;;24.75;;
64199;SDS011;50516;52.272;5.136;2023-02-22T03:30:02;48.60;;;24.83;;
64199;SDS011;50516;52.272;5.136;2023-02-22T03:32:35;44.53;;;25.42;;
64199;SDS011;50516;52.272;5.136;2023-02-22T03:35:12;44.65;;;25.42;;
64199;SDS011;50516;52.272;5.136;2023-02-22T03:37:43;45.90;;;25.42;;
64199;SDS011;50516;52.272;5.136;2023-02-22T03:40:13;44.85;;;25.70;;
64199;SDS011;50516;52.272;5.136;2023-02-22T03:42:43;43.13;;;24.52;;
64199;SDS011;50516;52.272;5.136;2023-02-22T03:45:12;42.80;;;25.13;;
64199;SDS011;50516;52.272;5.136;2023-02-22T03:47:44;41.08;;;24.17;;
64199;SDS011;50516;52.272;5.136;2023-02-22T03:50:21;48.88;;;26.88;;
64199;SDS011;50516;52.272;5.136;2023-02-22T03:52:53;44.40;;;25.17;;
64199;SDS011;50516;52.272;5.136;2023-02-22T03:55:22;48.67;;;27.52;;
64199;SDS011;50516;52.272;5.136;2023-02-22T03:57:52;47.35;;;26.02;;
64199;SDS011;50516;52.272;5.136;2023-02-22T04:00:23;43.63;;;23.60;;
64199;SDS011;50516;52.272;5.136;2023-02-22T04:02:51;45.30;;;26.05;;
64199;SDS011;50516;52.272;5.136;2023-02-22T04:05:17;44.13;;;24.05;;
64199;SDS011;50516;52.272;5.136;2023-02-22T04:07:43;43.40;;;24.83;;
64199;SDS011;50516;52.272;5.136;2023-02-22T04:10:09;47.35;;;25.73;;
64199;SDS011;50516;52.272;5.136;2023-02-22T04:12:36;47.25;;;25.00;;
64199;SDS011;50516;52.272;5.136;2023-02-22T04:15:01;46.40;;;25.95;;
64199;SDS011;50516;52.272;5.136;2023-02-22T04:17:28;45.28;;;24.33;;
64199;SDS011;50516;52.272;5.136;2023-02-22T04:19:54;45.67;;;26.02;;
64199;SDS011;50516;52.272;5.136;2023-02-22T04:22:19;44.05;;;25.08;;
64199;SDS011;50516;52.272;5.136;2023-02-22T04:24:44;45.40;;;24.25;;
64199;SDS011;50516;52.272;5.136;2023-02-22T04:27:10;48.75;;;25.80;;
64199;SDS011;50516;52.272;5.136;2023-02-22T04:29:35;44.17;;;23.70;;
64199;SDS011;50516;52.272;5.136;2023-02-22T04:32:01;45.75;;;25.88;;
64199;SDS011;50516;52.272;5.136;2023-02-22T04:34:28;43.40;;;24.45;;
64199;SDS011;50516;52.272;5.136;2023-02-22T04:36:53;46.33;;;24.60;;
64199;SDS011;50516;52.272;5.136;2023-02-22T04:39:19;45.17;;;25.85;;
64199;SDS011;50516;52.272;5.136;2023-02-22T04:41:44;44.15;;;23.60;;
64199;SDS011;50516;52.272;5.136;2023-02-22T04:44:11;42.55;;;24.15;;
64199;SDS011;50516;52.272;5.136;2023-02-22T04:46:37;46.10;;;24.80;;
64199;SDS011;50516;52.272;5.136;2023-02-22T04:49:02;42.75;;;23.80;;
64199;SDS011;50516;52.272;5.136;2023-02-22T04:51:28;42.47;;;23.50;;
64199;SDS011;50516;52.272;5.136;2023-02-22T04:53:53;42.60;;;24.27;;
64199;SDS011;50516;52.272;5.136;2023-02-22T04:56:19;45.55;;;25.23;;
64199;SDS011;50516;52.272;5.136;2023-02-22T04:58:44;45.63;;;23.05;;
64199;SDS011;50516;52.272;5.136;2023-02-22T05:01:10;45.75;;;24.58;;
64199;SDS011;50516;52.272;5.136;2023-02-22T05:03:36;49.22;;;24.38;;
64199;SDS011;50516;52.272;5.136;2023-02-22T05:06:02;42.42;;;23.35;;
64199;SDS011;50516;52.272;5.136;2023-02-22T05:08:27;41.63;;;23.08;;
64199;SDS011;50516;52.272;5.136;2023-02-22T05:10:53;42.45;;;23.27;;
64199;SDS011;50516;52.272;5.136;2023-02-22T05:13:19;41.50;;;23.50;;
64199;SDS011;50516;52.272;5.136;2023-02-22T05:15:44;44.03;;;23.73;;
64199;SDS011;50516;52.272;5.136;2023-02-22T05:18:09;46.75;;;24.42;;
64199;SDS011;50516;52.272;5.136;2023-02-22T05:20:35;49.88;;;26.08;;
64199;SDS011;50516;52.272;5.136;2023-02-22T05:23:03;48.83;;;26.00;;
64199;SDS011;50516;52.272;5.136;2023-02-22T05:25:29;40.17;;;21.95;;
64199;SDS011;50516;52.272;5.136;2023-02-22T05:27:56;49.95;;;26.92;;
64199;SDS011;50516;52.272;5.136;2023-02-22T05:30:27;50.25;;;25.08;;
64199;SDS011;50516;52.272;5.136;2023-02-22T05:32:55;46.85;;;25.45;;
64199;SDS011;50516;52.272;5.136;2023-02-22T05:35:21;48.92;;;24.98;;
64199;SDS011;50516;52.272;5.136;2023-02-22T05:37:47;49.92;;;26.92;;
64199;SDS011;50516;52.272;5.136;2023-02-22T05:40:15;50.03;;;26.00;;
64199;SDS011;50516;52.272;5.136;2023-02-22T05:42:45;47.95;;;25.17;;
64199;SDS011;50516;52.272;5.136;2023-02-22T05:45:11;45.13;;;24.73;;
64199;SDS011;50516;52.272;5.136;2023-02-22T05:47:38;48.72;;;25.58;;
64199;SDS011;50516;52.272;5.136;2023-02-22T05:50:04;46.00;;;24.30;;
64199;SDS011;50516;52.272;5.136;2023-02-22T05:52:29;48.05;;;25.60;;
64199;SDS011;50516;52.272;5.136;2023-02-22T05:54:55;48.35;;;26.75;;
64199;SDS011;50516;52.272;5.136;2023-02-22T05:57:20;47.15;;;25.88;;
64199;SDS011;50516;52.272;5.136;2023-02-22T05:59:45;51.28;;;25.73;;
64199;SDS011;50516;52.272;5.136;2023-02-22T06:02:11;51.45;;;25.15;;
64199;SDS011;50516;52.272;5.136;2023-02-22T06:04:36;49.78;;;25.00;;
64199;SDS011;50516;52.272;5.136;2023-02-22T06:07:01;46.63;;;24.75;;
64199;SDS011;50516;52.272;5.136;2023-02-22T06:09:27;49.63;;;27.73;;
64199;SDS011;50516;52.272;5.136;2023-02-22T06:11:52;51.75;;;27.20;;
64199;SDS011;50516;52.272;5.136;2023-02-22T06:14:17;47.63;;;24.80;;
64199;SDS011;50516;52.272;5.136;2023-02-22T06:16:43;50.08;;;26.20;;
64199;SDS011;50516;52.272;5.136;2023-02-22T06:19:08;50.10;;;25.88;;
64199;SDS011;50516;52.272;5.136;2023-02-22T06:21:33;49.53;;;28.33;;
64199;SDS011;50516;52.272;5.136;2023-02-22T06:24:00;55.15;;;27.38;;
64199;SDS011;50516;52.272;5.136;2023-02-22T06:26:28;54.65;;;27.75;;
64199;SDS011;50516;52.272;5.136;2023-02-22T06:28:53;49.55;;;26.27;;
64199;SDS011;50516;52.272;5.136;2023-02-22T06:31:19;55.10;;;28.00;;
64199;SDS011;50516;52.272;5.136;2023-02-22T06:33:44;50.33;;;26.63;;
64199;SDS011;50516;52.272;5.136;2023-02-22T06:36:09;49.97;;;24.50;;
64199;SDS011;50516;52.272;5.136;2023-02-22T06:38:35;55.53;;;27.90;;
64199;SDS011;50516;52.272;5.136;2023-02-22T06:41:00;54.75;;;27.33;;
64199;SDS011;50516;52.272;5.136;2023-02-22T06:43:26;54.28;;;27.63;;
64199;SDS011;50516;52.272;5.136;2023-02-22T06:45:52;51.55;;;25.75;;
64199;SDS011;50516;52.272;5.136;2023-02-22T06:48:17;54.30;;;27.27;;
64199;SDS011;50516;52.272;5.136;2023-02-22T06:50:42;51.65;;;28.25;;
64199;SDS011;50516;52.272;5.136;2023-02-22T06:53:08;51.10;;;25.95;;
64199;SDS011;50516;52.272;5.136;2023-02-22T06:55:34;57.45;;;28.80;;
64199;SDS011;50516;52.272;5.136;2023-02-22T06:58:00;47.03;;;25.25;;
64199;SDS011;50516;52.272;5.136;2023-02-22T07:00:27;56.78;;;28.40;;
64199;SDS011;50516;52.272;5.136;2023-02-22T07:02:54;54.08;;;26.92;;
64199;SDS011;50516;52.272;5.136;2023-02-22T07:05:20;60.20;;;28.48;;
64199;SDS011;50516;52.272;5.136;2023-02-22T07:07:47;54.05;;;27.80;;
64199;SDS011;50516;52.272;5.136;2023-02-22T07:10:18;55.33;;;27.55;;
64199;SDS011;50516;52.272;5.136;2023-02-22T07:12:49;58.80;;;27.13;;
64199;SDS011;50516;52.272;5.136;2023-02-22T07:15:16;60.95;;;28.20;;
64199;SDS011;50516;52.272;5.136;2023-02-22T07:17:42;51.83;;;26.60;;
64199;SDS011;50516;52.272;5.136;2023-02-22T07:20:08;54.08;;;26.55;;
64199;SDS011;50516;52.272;5.136;2023-02-22T07:22:35;53.25;;;26.58;;
64199;SDS011;50516;52.272;5.136;2023-02-22T07:25:01;59.50;;;28.13;;
64199;SDS011;50516;52.272;5.136;2023-02-22T07:27:27;57.90;;;29.10;;
64199;SDS011;50516;52.272;5.136;2023-02-22T07:29:52;54.03;;;27.00;;
64199;SDS011;50516;52.272;5.136;2023-02-22T07:32:18;58.22;;;28.98;;
64199;SDS011;50516;52.272;5.136;2023-02-22T07:34:43;56.47;;;26.65;;
64199;SDS011;50516;52.272;5.136;2023-02-22T07:37:08;51.10;;;25.92;;
64199;SDS011;50516;52.272;5.136;2023-02-22T07:39:34;50.60;;;26.08;;
64199;SDS011;50516;52.272;5.136;2023-02-22T07:42:01;58.38;;;27.55;;
64199;SDS011;50516;52.272;5.136;2023-02-22T07:44:26;53.53;;;26.42;;
64199;SDS011;50516;52.272;5.136;2023-02-22T07:46:52;54.08;;;26.45;;
64199;SDS011;50516;52.272;5.136;2023-02-22T07:49:17;51.60;;;26.10;;
64199;SDS011;50516;52.272;5.136;2023-02-22T07:51:42;54.65;;;27.85;;
64199;SDS011;50516;52.272;5.136;2023-02-22T07:54:08;58.63;;;25.15;;
64199;SDS011;50516;52.272;5.136;2023-02-22T07:56:33;56.55;;;27.27;;
64199;SDS011;50516;52.272;5.136;2023-02-22T07:58:58;59.88;;;30.50;;
64199;SDS011;50516;52.272;5.136;2023-02-22T08:01:25;60.15;;;28.60;;
64199;SDS011;50516;52.272;5.136;2023-02-22T08:03:51;65.90;;;31.30;;
64199;SDS011;50516;52.272;5.136;2023-02-22T08:06:17;59.80;;;29.15;;
64199;SDS011;50516;52.272;5.136;2023-02-22T08:08:44;60.83;;;27.38;;
64199;SDS011;50516;52.272;5.136;2023-02-22T08:11:10;66.28;;;28.73;;
64199;SDS011;50516;52.272;5.136;2023-02-22T08:13:37;55.70;;;26.98;;
64199;SDS011;50516;52.272;5.136;2023-02-22T08:16:03;56.83;;;29.67;;
64199;SDS011;50516;52.272;5.136;2023-02-22T08:18:28;63.80;;;29.95;;
64199;SDS011;50516;52.272;5.136;2023-02-22T08:20:54;61.88;;;30.52;;
64199;SDS011;50516;52.272;5.136;2023-02-22T08:23:21;58.90;;;29.15;;
64199;SDS011;50516;52.272;5.136;2023-02-22T08:25:49;60.40;;;30.23;;
64199;SDS011;50516;52.272;5.136;2023-02-22T08:28:15;52.97;;;26.10;;
64199;SDS011;50516;52.272;5.136;2023-02-22T08:30:44;58.00;;;27.00;;
64199;SDS011;50516;52.272;5.136;2023-02-22T08:33:10;57.67;;;28.05;;
64199;SDS011;50516;52.272;5.136;2023-02-22T08:35:40;57.47;;;25.90;;
64199;SDS011;50516;52.272;5.136;2023-02-22T08:38:06;57.30;;;28.40;;
64199;SDS011;50516;52.272;5.136;2023-02-22T08:40:33;51.65;;;25.67;;
64199;SDS011;50516;52.272;5.136;2023-02-22T08:43:00;51.95;;;26.13;;
64199;SDS011;50516;52.272;5.136;2023-02-22T08:45:26;54.42;;;27.00;;
64199;SDS011;50516;52.272;5.136;2023-02-22T08:47:52;52.97;;;27.17;;
64199;SDS011;50516;52.272;5.136;2023-02-22T08:50:19;48.63;;;25.13;;
64199;SDS011;50516;52.272;5.136;2023-02-22T08:52:50;48.47;;;25.48;;
64199;SDS011;50516;52.272;5.136;2023-02-22T08:55:20;50.05;;;25.92;;
64199;SDS011;50516;52.272;5.136;2023-02-22T08:57:47;51.88;;;27.45;;
64199;SDS011;50516;52.272;5.136;2023-02-22T09:00:12;53.55;;;27.08;;
64199;SDS011;50516;52.272;5.136;2023-02-22T09:02:39;50.42;;;26.08;;
64199;SDS011;50516;52.272;5.136;2023-02-22T09:05:05;47.67;;;25.17;;
64199;SDS011;50516;52.272;5.136;2023-02-22T09:07:31;48.20;;;26.25;;
64199;SDS011;50516;52.272;5.136;2023-02-22T09:09:56;47.13;;;25.30;;
64199;SDS011;50516;52.272;5.136;2023-02-22T09:12:22;45.70;;;25.95;;
64199;SDS011;50516;52.272;5.136;2023-02-22T09:14:47;47.90;;;25.33;;
64199;SDS011;50516;52.272;5.136;2023-02-22T09:17:12;50.88;;;26.83;;
64199;SDS011;50516;52.272;5.136;2023-02-22T09:19:38;49.38;;;25.67;;
64199;SDS011;50516;52.272;5.136;2023-02-22T09:22:03;47.85;;;25.42;;
64199;SDS011;50516;52.272;5.136;2023-02-22T09:24:29;44.20;;;24.67;;
64199;SDS011;50516;52.272;5.136;2023-02-22T09:26:54;50.45;;;26.15;;
64199;SDS011;50516;52.272;5.136;2023-02-22T09:29:20;50.08;;;27.23;;
64199;SDS011;50516;52.272;5.136;2023-02-22T09:31:49;47.15;;;24.63;;
64199;SDS011;50516;52.272;5.136;2023-02-22T09:34:17;48.70;;;25.13;;
64199;SDS011;50516;52.272;5.136;2023-02-22T09:36:44;44.78;;;25.75;;
64199;SDS011;50516;52.272;5.136;2023-02-22T09:39:11;44.00;;;25.08;;
64199;SDS011;50516;52.272;5.136;2023-02-22T09:44:34;47.38;;;25.70;;
64199;SDS011;50516;52.272;5.136;2023-02-22T09:47:09;44.42;;;25.38;;
64199;SDS011;50516;52.272;5.136;2023-02-22T09:49:46;42.38;;;23.55;;
64199;SDS011;50516;52.272;5.136;2023-02-22T09:57:34;40.97;;;24.00;;
64199;SDS011;50516;52.272;5.136;2023-02-22T10:02:43;43.53;;;26.42;;
64199;SDS011;50516;52.272;5.136;2023-02-22T10:05:25;51.83;;;29.88;;
64199;SDS011;50516;52.272;5.136;2023-02-22T10:08:01;47.55;;;28.63;;
64199;SDS011;50516;52.272;5.136;2023-02-22T10:10:35;46.58;;;26.95;;
64199;SDS011;50516;52.272;5.136;2023-02-22T10:13:12;49.42;;;27.38;;
64199;SDS011;50516;52.272;5.136;2023-02-22T10:16:28;43.15;;;25.42;;
64199;SDS011;50516;52.272;5.136;2023-02-22T10:27:07;34.28;;;21.25;;
64199;SDS011;50516;52.272;5.136;2023-02-22T10:29:42;34.65;;;21.90;;
64199;SDS011;50516;52.272;5.136;2023-02-22T10:32:18;39.83;;;21.73;;
64199;SDS011;50516;52.272;5.136;2023-02-22T10:34:49;32.25;;;19.67;;
64199;SDS011;50516;52.272;5.136;2023-02-22T10:37:30;34.60;;;21.10;;
64199;SDS011;50516;52.272;5.136;2023-02-22T10:40:09;34.42;;;21.30;;
64199;SDS011;50516;52.272;5.136;2023-02-22T10:42:38;37.10;;;22.85;;
64199;SDS011;50516;52.272;5.136;2023-02-22T10:45:03;35.42;;;21.27;;
64199;SDS011;50516;52.272;5.136;2023-02-22T10:47:38;35.80;;;21.05;;
64199;SDS011;50516;52.272;5.136;2023-02-22T10:50:03;35.90;;;21.75;;
64199;SDS011;50516;52.272;5.136;2023-02-22T10:52:30;31.38;;;19.50;;
64199;SDS011;50516;52.272;5.136;2023-02-22T10:54:58;31.77;;;20.13;;
64199;SDS011;50516;52.272;5.136;2023-02-22T10:57:26;32.25;;;19.65;;
64199;SDS011;50516;52.272;5.136;2023-02-22T10:59:58;30.52;;;19.27;;
64199;SDS011;50516;52.272;5.136;2023-02-22T11:02:55;32.87;;;20.10;;
64199;SDS011;50516;52.272;5.136;2023-02-22T11:05:35;29.92;;;18.67;;
64199;SDS011;50516;52.272;5.136;2023-02-22T11:10:52;32.33;;;19.25;;
64199;SDS011;50516;52.272;5.136;2023-02-22T11:13:24;29.55;;;19.30;;
64199;SDS011;50516;52.272;5.136;2023-02-22T11:15:59;30.47;;;18.50;;
64199;SDS011;50516;52.272;5.136;2023-02-22T11:18:35;33.35;;;20.33;;
64199;SDS011;50516;52.272;5.136;2023-02-22T11:21:08;31.98;;;19.20;;
64199;SDS011;50516;52.272;5.136;2023-02-22T11:23:36;29.23;;;17.45;;
64199;SDS011;50516;52.272;5.136;2023-02-22T11:26:09;30.17;;;19.25;;
64199;SDS011;50516;52.272;5.136;2023-02-22T11:28:35;30.52;;;19.63;;
64199;SDS011;50516;52.272;5.136;2023-02-22T11:31:14;31.08;;;18.90;;
64199;SDS011;50516;52.272;5.136;2023-02-22T11:33:47;35.67;;;19.88;;
64199;SDS011;50516;52.272;5.136;2023-02-22T11:36:28;37.53;;;20.42;;
64199;SDS011;50516;52.272;5.136;2023-02-22T11:39:05;32.13;;;20.30;;
64199;SDS011;50516;52.272;5.136;2023-02-22T11:41:49;34.30;;;20.90;;
64199;SDS011;50516;52.272;5.136;2023-02-22T11:44:25;35.00;;;21.35;;
64199;SDS011;50516;52.272;5.136;2023-02-22T11:46:54;37.42;;;21.23;;
64199;SDS011;50516;52.272;5.136;2023-02-22T11:49:30;34.17;;;20.60;;
64199;SDS011;50516;52.272;5.136;2023-02-22T11:52:04;36.15;;;20.83;;
64199;SDS011;50516;52.272;5.136;2023-02-22T12:00:03;34.85;;;21.83;;
64199;SDS011;50516;52.272;5.136;2023-02-22T12:19:18;33.67;;;21.73;;
64199;SDS011;50516;52.272;5.136;2023-02-22T12:21:56;33.97;;;20.45;;
64199;SDS011;50516;52.272;5.136;2023-02-22T12:24:29;34.83;;;21.20;;
64199;SDS011;50516;52.272;5.136;2023-02-22T12:27:01;33.45;;;20.92;;
64199;SDS011;50516;52.272;5.136;2023-02-22T12:29:36;36.13;;;21.10;;
64199;SDS011;50516;52.272;5.136;2023-02-22T12:34:41;36.28;;;21.40;;
64199;SDS011;50516;52.272;5.136;2023-02-22T12:37:15;36.05;;;21.30;;
64199;SDS011;50516;52.272;5.136;2023-02-22T12:47:53;30.75;;;20.25;;
64199;SDS011;50516;52.272;5.136;2023-02-22T12:50:28;34.35;;;20.67;;
64199;SDS011;50516;52.272;5.136;2023-02-22T12:53:03;33.15;;;19.05;;
64199;SDS011;50516;52.272;5.136;2023-02-22T12:55:39;32.33;;;20.05;;
64199;SDS011;50516;52.272;5.136;2023-02-22T12:58:17;32.83;;;20.60;;
64199;SDS011;50516;52.272;5.136;2023-02-22T13:00:57;34.90;;;20.13;;
64199;SDS011;50516;52.272;5.136;2023-02-22T13:03:36;34.97;;;20.70;;
64199;SDS011;50516;52.272;5.136;2023-02-22T13:06:17;32.10;;;20.90;;
64199;SDS011;50516;52.272;5.136;2023-02-22T13:11:27;34.35;;;20.58;;
64199;SDS011;50516;52.272;5.136;2023-02-22T13:17:00;32.08;;;20.17;;
64199;SDS011;50516;52.272;5.136;2023-02-22T13:20:06;30.95;;;19.73;;
64199;SDS011;50516;52.272;5.136;2023-02-22T13:25:40;34.53;;;20.35;;
64199;SDS011;50516;52.272;5.136;2023-02-22T13:30:40;35.67;;;21.80;;
64199;SDS011;50516;52.272;5.136;2023-02-22T13:33:24;47.25;;;21.25;;
64199;SDS011;50516;52.272;5.136;2023-02-22T13:38:54;32.85;;;20.75;;
64199;SDS011;50516;52.272;5.136;2023-02-22T13:47:07;33.70;;;19.63;;
64199;SDS011;50516;52.272;5.136;2023-02-22T13:52:10;32.55;;;19.33;;
64199;SDS011;50516;52.272;5.136;2023-02-22T13:59:44;34.45;;;20.10;;
64199;SDS011;50516;52.272;5.136;2023-02-22T14:02:30;30.40;;;19.60;;
64199;SDS011;50516;52.272;5.136;2023-02-22T14:05:27;34.25;;;21.30;;
64199;SDS011;50516;52.272;5.136;2023-02-22T14:08:07;32.22;;;20.52;;
64199;SDS011;50516;52.272;5.136;2023-02-22T14:10:55;30.00;;;19.73;;
64199;SDS011;50516;52.272;5.136;2023-02-22T14:13:30;32.80;;;21.15;;
64199;SDS011;50516;52.272;5.136;2023-02-22T14:18:26;33.63;;;20.02;;
64199;SDS011;50516;52.272;5.136;2023-02-22T14:21:03;33.80;;;21.88;;
64199;SDS011;50516;52.272;5.136;2023-02-22T14:23:34;34.22;;;20.67;;
64199;SDS011;50516;52.272;5.136;2023-02-22T14:26:35;38.42;;;22.15;;
64199;SDS011;50516;52.272;5.136;2023-02-22T14:31:27;34.40;;;20.70;;
64199;SDS011;50516;52.272;5.136;2023-02-22T14:39:41;32.33;;;19.77;;
64199;SDS011;50516;52.272;5.136;2023-02-22T14:47:39;32.05;;;20.75;;
64199;SDS011;50516;52.272;5.136;2023-02-22T14:50:15;33.92;;;21.55;;
64199;SDS011;50516;52.272;5.136;2023-02-22T14:52:48;32.72;;;21.63;;
64199;SDS011;50516;52.272;5.136;2023-02-22T14:55:24;36.80;;;20.98;;
64199;SDS011;50516;52.272;5.136;2023-02-22T15:00:39;36.85;;;22.08;;
64199;SDS011;50516;52.272;5.136;2023-02-22T15:03:26;31.58;;;20.63;;
64199;SDS011;50516;52.272;5.136;2023-02-22T15:06:14;33.95;;;20.63;;
64199;SDS011;50516;52.272;5.136;2023-02-22T15:08:42;29.40;;;19.02;;
64199;SDS011;50516;52.272;5.136;2023-02-22T15:11:23;29.52;;;20.35;;
64199;SDS011;50516;52.272;5.136;2023-02-22T15:13:51;27.25;;;18.83;;
64199;SDS011;50516;52.272;5.136;2023-02-22T15:16:18;30.20;;;19.40;;
64199;SDS011;50516;52.272;5.136;2023-02-22T15:18:46;29.48;;;20.48;;
64199;SDS011;50516;52.272;5.136;2023-02-22T15:21:18;27.90;;;18.60;;
64199;SDS011;50516;52.272;5.136;2023-02-22T15:29:02;31.85;;;20.05;;
64199;SDS011;50516;52.272;5.136;2023-02-22T15:31:34;33.22;;;20.42;;
64199;SDS011;50516;52.272;5.136;2023-02-22T15:34:23;30.67;;;18.80;;
64199;SDS011;50516;52.272;5.136;2023-02-22T15:36:54;31.67;;;20.25;;
64199;SDS011;50516;52.272;5.136;2023-02-22T15:39:26;30.63;;;18.58;;
64199;SDS011;50516;52.272;5.136;2023-02-22T15:42:03;32.13;;;19.63;;
64199;SDS011;50516;52.272;5.136;2023-02-22T15:44:40;30.50;;;19.65;;
64199;SDS011;50516;52.272;5.136;2023-02-22T15:47:11;29.50;;;18.65;;
64199;SDS011;50516;52.272;5.136;2023-02-22T15:49:40;28.75;;;18.25;;
64199;SDS011;50516;52.272;5.136;2023-02-22T15:52:07;31.83;;;21.23;;
64199;SDS011;50516;52.272;5.136;2023-02-22T15:54:45;27.75;;;19.38;;
64199;SDS011;50516;52.272;5.136;2023-02-22T15:57:13;31.60;;;19.65;;
64199;SDS011;50516;52.272;5.136;2023-02-22T15:59:42;28.17;;;19.42;;
64199;SDS011;50516;52.272;5.136;2023-02-22T16:02:22;31.02;;;20.85;;
64199;SDS011;50516;52.272;5.136;2023-02-22T16:04:58;28.95;;;18.30;;
64199;SDS011;50516;52.272;5.136;2023-02-22T16:07:26;31.65;;;19.70;;
64199;SDS011;50516;52.272;5.136;2023-02-22T16:09:52;28.75;;;20.42;;
64199;SDS011;50516;52.272;5.136;2023-02-22T16:14:45;32.30;;;21.08;;
64199;SDS011;50516;52.272;5.136;2023-02-22T16:19:55;31.48;;;19.67;;
64199;SDS011;50516;52.272;5.136;2023-02-22T16:25:11;34.28;;;21.42;;
64199;SDS011;50516;52.272;5.136;2023-02-22T16:27:41;33.60;;;22.30;;
64199;SDS011;50516;52.272;5.136;2023-02-22T16:32:48;28.98;;;21.42;;
64199;SDS011;50516;52.272;5.136;2023-02-22T16:35:14;32.20;;;22.08;;
64199;SDS011;50516;52.272;5.136;2023-02-22T16:37:54;30.45;;;21.20;;
64199;SDS011;50516;52.272;5.136;2023-02-22T16:40:29;30.00;;;20.42;;
64199;SDS011;50516;52.272;5.136;2023-02-22T16:43:02;35.80;;;21.88;;
64199;SDS011;50516;52.272;5.136;2023-02-22T16:45:32;32.72;;;21.75;;
64199;SDS011;50516;52.272;5.136;2023-02-22T16:47:58;31.88;;;21.10;;
64199;SDS011;50516;52.272;5.136;2023-02-22T16:50:24;35.35;;;22.45;;
64199;SDS011;50516;52.272;5.136;2023-02-22T16:52:51;33.22;;;21.65;;
64199;SDS011;50516;52.272;5.136;2023-02-22T16:55:20;32.42;;;21.55;;
64199;SDS011;50516;52.272;5.136;2023-02-22T16:57:46;37.38;;;21.65;;
64199;SDS011;50516;52.272;5.136;2023-02-22T17:00:14;30.25;;;22.02;;
64199;SDS011;50516;52.272;5.136;2023-02-22T17:02:55;35.97;;;22.02;;